Time;durP1;ratioP1;P1;durP2;ratioP2;P2;SDS_P1;SDS_P2;PMS_P1;PMS_P2;Temp;Humidity;BMP_temperature;BMP_pressure;BME280_temperature;BME280_humidity;BME280_pressure;Samples;Min_cycle;Max_cycle;Signal;HPM_P1;HPM_P2
2023/03/26 00:01:46;;;;;;;;;;;;;;;14.15;58.07;100361.66;5133382;27;19916;-83
2023/03/26 00:04:38;;;;;;;;;;;;;;;14.15;58.17;100358.91;5103862;28;19916;-83
2023/03/26 00:07:30;;;;;;;;;;;;;;;14.07;58.35;100365.31;5109500;28;19916;-83
2023/03/26 00:10:22;;;;;;;;;;;;;;;13.97;57.08;100363.84;5119163;27;19920;-83
2023/03/26 00:13:14;;;;;;;;;;;;;;;13.89;57.36;100359.34;5082080;28;19917;-83
2023/03/26 00:16:06;;;;;;;;;;;;;;;13.83;57.53;100349.78;5086155;28;19916;-83
2023/03/26 00:18:58;;;;;;;;;;;;;;;13.75;58.01;100358.91;5083318;28;20388;-83
2023/03/26 00:21:47;;;;;;;;;;;;;;;13.78;58.19;100363.69;5089957;28;19915;-82
2023/03/26 00:24:39;;;;;;;;;;;;;;;13.81;57.86;100352.06;5102671;28;19916;-83
2023/03/26 00:27:31;;;;;;;;;;;;;;;13.87;57.66;100358.88;5114001;28;19915;-83
2023/03/26 00:30:23;;;;;;;;;;;;;;;13.96;58.58;100356.81;5129920;27;19915;-83
2023/03/26 00:33:16;;;;;;;;;;;;;;;13.98;57.92;100370.13;5125189;28;19928;-83
2023/03/26 00:36:09;;;;;;;;;;;;;;;13.94;57.75;100372.75;5103064;28;19916;-83
2023/03/26 00:39:01;;;;;;;;;;;;;;;13.85;57.77;100357.63;5104604;28;19919;-83
2023/03/26 00:41:53;;;;;;;;;;;;;;;13.96;57.37;100350.56;5084598;28;19915;-83
2023/03/26 00:44:45;;;;;;;;;;;;;;;13.98;57.08;100359.97;5106526;28;19916;-83
2023/03/26 00:47:35;;;;;;;;;;;;;;;14.02;57.52;100358.13;5111099;28;20271;-83
2023/03/26 00:50:24;;;;;;;;;;;;;;;13.91;57.40;100346.13;5101612;28;19916;-83
2023/03/26 00:53:17;;;;;;;;;;;;;;;13.87;56.78;100350.66;5126082;27;19915;-83
2023/03/26 00:56:07;;;;;;;;;;;;;;;13.78;57.13;100346.47;5123530;27;19916;-82
2023/03/26 00:58:58;;;;;;;;;;;;;;;13.64;57.67;100331.28;5102824;28;20394;-83
2023/03/26 01:01:51;;;;;;;;;;;;;;;13.66;57.39;100328.97;5111090;28;19920;-83
2023/03/26 01:04:44;;;;;;;;;;;;;;;13.67;56.79;100322.38;5095939;28;19920;-84
2023/03/26 01:07:36;;;;;;;;;;;;;;;13.61;57.64;100314.78;5089016;28;19917;-84
2023/03/26 01:10:27;;;;;;;;;;;;;;;13.64;56.90;100317.59;5097227;28;19917;-83
2023/03/26 01:13:20;;;;;;;;;;;;;;;13.68;56.26;100318.50;5112443;28;20449;-83
2023/03/26 01:16:19;;;;;;;;;;;;;;;13.66;55.92;100328.19;5100793;28;20076;-83
2023/03/26 01:19:20;;;;;;;;;;;;;;;13.59;56.28;100323.31;5094712;28;20326;-84
2023/03/26 01:22:12;;;;;;;;;;;;;;;13.34;56.22;100327.22;5079635;28;19920;-83
2023/03/26 01:25:04;;;;;;;;;;;;;;;13.25;57.22;100323.81;5093142;28;19916;-83
2023/03/26 01:27:57;;;;;;;;;;;;;;;13.05;58.33;100317.31;5096795;28;19924;-84
2023/03/26 01:30:54;;;;;;;;;;;;;;;12.99;58.04;100315.16;5096740;28;19927;-84
2023/03/26 01:33:46;;;;;;;;;;;;;;;12.86;58.13;100314.31;5080340;28;20307;-83
2023/03/26 01:36:47;;;;;;;;;;;;;;;12.86;58.37;100297.94;5076789;28;19916;-83
2023/03/26 01:39:43;;;;;;;;;;;;;;;12.96;58.60;100296.69;5075230;28;19920;-83
2023/03/26 01:42:43;;;;;;;;;;;;;;;12.80;58.57;100294.66;5096068;28;19913;-82
2023/03/26 01:45:33;;;;;;;;;;;;;;;12.90;58.65;100293.41;5090293;28;19920;-83
2023/03/26 01:48:29;;;;;;;;;;;;;;;12.85;58.63;100291.69;5068934;28;20307;-82
2023/03/26 01:51:33;;;;;;;;;;;;;;;12.58;59.28;100288.84;5092933;28;19916;-83
2023/03/26 01:54:25;;;;;;;;;;;;;;;12.69;59.32;100279.88;5092377;28;19916;-83
2023/03/26 01:57:21;;;;;;;;;;;;;;;12.73;59.19;100275.34;5079427;28;19916;-83
2023/03/26 02:00:13;;;;;;;;;;;;;;;12.57;58.49;100281.78;5095680;28;19924;-83
2023/03/26 02:03:19;;;;;;;;;;;;;;;12.56;58.43;100272.00;5099355;28;19916;-83
2023/03/26 02:06:21;;;;;;;;;;;;;;;12.59;58.81;100288.50;5079738;28;19924;-83
2023/03/26 02:09:15;;;;;;;;;;;;;;;12.53;59.88;100278.94;5100350;28;19931;-83
2023/03/26 02:12:07;;;;;;;;;;;;;;;12.49;59.19;100280.78;5097549;28;19916;-83
2023/03/26 02:15:00;;;;;;;;;;;;;;;12.37;60.15;100281.53;5087460;28;19916;-83
2023/03/26 02:17:52;;;;;;;;;;;;;;;12.47;58.93;100293.94;5098527;28;20290;-82
2023/03/26 02:20:44;;;;;;;;;;;;;;;12.47;58.84;100304.84;5095535;28;19916;-84
2023/03/26 02:23:36;;;;;;;;;;;;;;;12.40;58.76;100299.94;5114742;28;19916;-83
2023/03/26 02:26:27;;;;;;;;;;;;;;;12.50;57.53;100312.34;5101714;28;19916;-83
2023/03/26 02:29:30;;;;;;;;;;;;;;;12.35;57.89;100312.97;5094653;28;20371;-82
2023/03/26 02:32:19;;;;;;;;;;;;;;;12.31;59.19;100303.88;5097785;28;19916;-82
2023/03/26 02:35:09;;;;;;;;;;;;;;;12.31;58.55;100312.06;5093480;28;19916;-82
2023/03/26 02:38:01;;;;;;;;;;;;;;;12.27;57.99;100311.94;5078827;28;19917;-82
2023/03/26 02:40:53;;;;;;;;;;;;;;;12.14;59.24;100309.53;5074304;28;19924;-82
2023/03/26 02:43:44;;;;;;;;;;;;;;;12.19;59.15;100312.03;5060729;28;20689;-83
2023/03/26 02:46:38;;;;;;;;;;;;;;;12.11;59.31;100318.34;5095993;28;19916;-82
2023/03/26 02:49:43;;;;;;;;;;;;;;;12.00;59.19;100310.59;5088885;28;19919;-83
2023/03/26 02:52:36;;;;;;;;;;;;;;;11.88;58.96;100310.56;5112915;28;19916;-82
2023/03/26 02:55:28;;;;;;;;;;;;;;;11.83;59.10;100310.75;5097273;28;19916;-83
2023/03/26 02:58:21;;;;;;;;;;;;;;;11.87;58.41;100306.22;5094340;28;19920;-82
2023/03/26 03:01:13;;;;;;;;;;;;;;;11.82;59.11;100298.28;5114375;22;19925;-80
2023/03/26 03:04:10;;;;;;;;;;;;;;;11.84;59.55;100293.25;5049249;28;20199;-79
2023/03/26 03:07:02;;;;;;;;;;;;;;;11.77;60.52;100287.56;5053899;28;20391;-80
2023/03/26 03:09:54;;;;;;;;;;;;;;;11.86;60.99;100287.50;5054393;28;19917;-79
2023/03/26 03:13:02;;;;;;;;;;;;;;;11.82;61.24;100287.38;5049098;28;19916;-80
2023/03/26 03:15:54;;;;;;;;;;;;;;;11.72;60.59;100295.13;5041807;28;19917;-80
2023/03/26 03:18:46;;;;;;;;;;;;;;;11.55;60.17;100293.31;5045720;28;19922;-78
2023/03/26 03:21:38;;;;;;;;;;;;;;;11.56;60.43;100297.63;5053267;28;20403;-80
2023/03/26 03:24:30;;;;;;;;;;;;;;;11.65;59.55;100289.41;5031454;28;19917;-78
2023/03/26 03:27:22;;;;;;;;;;;;;;;11.60;59.82;100282.22;5030229;28;19925;-78
2023/03/26 03:30:19;;;;;;;;;;;;;;;11.62;60.00;100273.72;5031531;28;20392;-80
2023/03/26 03:33:11;;;;;;;;;;;;;;;11.68;61.20;100286.81;5037045;28;19921;-78
2023/03/26 03:36:09;;;;;;;;;;;;;;;11.78;59.96;100288.38;5053148;28;19917;-79
2023/03/26 03:39:01;;;;;;;;;;;;;;;11.85;59.95;100297.59;5032310;28;19921;-79
2023/03/26 03:41:53;;;;;;;;;;;;;;;11.92;59.21;100297.84;5056996;28;19917;-79
2023/03/26 03:44:45;;;;;;;;;;;;;;;11.74;59.04;100296.41;5047774;28;19917;-78
2023/03/26 03:47:54;;;;;;;;;;;;;;;11.53;58.88;100296.38;5048278;28;20311;-79
2023/03/26 03:50:51;;;;;;;;;;;;;;;11.15;60.11;100292.94;5027329;28;19921;-78
2023/03/26 03:53:54;;;;;;;;;;;;;;;11.05;61.55;100293.31;5026875;28;19943;-79
2023/03/26 03:57:01;;;;;;;;;;;;;;;11.08;61.05;100290.72;5034862;28;19917;-79
2023/03/26 04:00:25;;;;;;;;;;;;;;;11.08;60.85;100296.16;5036070;28;19921;-79
2023/03/26 04:03:37;;;;;;;;;;;;;;;11.21;60.52;100302.53;5043442;28;19917;-79
2023/03/26 04:06:32;;;;;;;;;;;;;;;11.22;60.87;100306.03;5048303;28;19917;-79
2023/03/26 04:09:24;;;;;;;;;;;;;;;11.27;60.71;100303.94;5024128;28;19917;-79
2023/03/26 04:12:17;;;;;;;;;;;;;;;11.37;60.43;100302.75;5046613;28;19917;-78
2023/03/26 04:15:18;;;;;;;;;;;;;;;11.47;60.30;100300.44;5045379;28;19929;-79
2023/03/26 04:18:13;;;;;;;;;;;;;;;11.50;60.47;100290.78;5030463;28;20385;-78
2023/03/26 04:21:05;;;;;;;;;;;;;;;11.43;60.85;100276.91;5020080;28;19921;-79
2023/03/26 04:23:57;;;;;;;;;;;;;;;11.49;60.59;100273.66;5039470;28;19925;-79
2023/03/26 04:27:07;;;;;;;;;;;;;;;11.51;60.43;100281.50;5026942;28;19917;-78
2023/03/26 04:30:02;;;;;;;;;;;;;;;11.44;60.45;100283.94;5017933;28;20399;-78
2023/03/26 04:32:57;;;;;;;;;;;;;;;11.43;59.66;100276.91;5047014;28;19917;-79
2023/03/26 04:35:49;;;;;;;;;;;;;;;11.43;59.20;100277.69;5042730;28;19925;-78
2023/03/26 04:38:43;;;;;;;;;;;;;;;11.39;60.05;100278.69;5048596;28;20380;-80
2023/03/26 04:41:35;;;;;;;;;;;;;;;11.25;60.49;100275.44;5030695;28;19917;-80
2023/03/26 04:44:29;;;;;;;;;;;;;;;11.03;59.92;100280.03;5024714;28;19994;-80
2023/03/26 04:47:30;;;;;;;;;;;;;;;11.01;59.83;100276.88;5043102;28;19917;-80
2023/03/26 04:50:22;;;;;;;;;;;;;;;10.93;60.37;100285.84;5032261;28;19916;-79
2023/03/26 04:53:21;;;;;;;;;;;;;;;10.89;60.45;100287.63;5056408;28;19932;-79
2023/03/26 04:56:33;;;;;;;;;;;;;;;10.83;60.38;100286.22;5016961;28;19917;-80
2023/03/26 04:59:34;;;;;;;;;;;;;;;10.75;60.44;100303.38;5048021;28;19924;-79
2023/03/26 05:02:25;;;;;;;;;;;;;;;10.73;60.53;100297.47;5046790;28;19917;-79
2023/03/26 05:05:17;;;;;;;;;;;;;;;10.72;61.02;100295.88;5052670;28;20284;-79
2023/03/26 05:08:09;;;;;;;;;;;;;;;10.77;60.98;100298.41;5035690;28;19917;-79
2023/03/26 05:11:01;;;;;;;;;;;;;;;10.75;60.98;100297.16;5032932;28;20388;-75
2023/03/26 05:13:56;;;;;;;;;;;;;;;10.72;61.02;100299.38;5035764;28;20296;-75
2023/03/26 05:16:49;;;;;;;;;;;;;;;10.55;61.56;100290.50;5035253;28;19917;-75
2023/03/26 05:19:41;;;;;;;;;;;;;;;10.58;61.70;100292.56;5048866;28;19921;-74
2023/03/26 05:22:33;;;;;;;;;;;;;;;10.57;61.82;100285.53;5038227;28;19918;-75
2023/03/26 05:25:45;;;;;;;;;;;;;;;10.56;61.46;100283.94;5033189;28;19917;-74
2023/03/26 05:28:41;;;;;;;;;;;;;;;10.52;61.41;100272.09;5029284;28;20312;-74
2023/03/26 05:31:43;;;;;;;;;;;;;;;10.63;61.17;100286.94;5014531;28;19918;-74
2023/03/26 05:34:35;;;;;;;;;;;;;;;10.60;60.86;100290.31;5030707;28;19917;-75
2023/03/26 05:37:27;;;;;;;;;;;;;;;10.61;60.56;100290.00;5040955;28;19916;-74
2023/03/26 05:40:24;;;;;;;;;;;;;;;10.54;60.59;100278.03;5049028;28;19921;-74
2023/03/26 05:43:17;;;;;;;;;;;;;;;10.72;60.24;100272.19;5043368;28;19924;-74
2023/03/26 05:46:24;;;;;;;;;;;;;;;10.75;60.16;100276.19;5019158;28;19917;-75
2023/03/26 05:49:16;;;;;;;;;;;;;;;10.81;60.31;100276.81;5054240;28;19917;-74
2023/03/26 05:52:08;;;;;;;;;;;;;;;10.86;60.76;100280.16;5039357;28;19917;-75
2023/03/26 05:55:33;;;;;;;;;;;;;;;11.02;60.73;100278.44;5038256;28;19920;-75
2023/03/26 05:58:41;;;;;;;;;;;;;;;11.07;60.81;100278.25;5042263;28;19921;-74
2023/03/26 06:01:50;;;;;;;;;;;;;;;11.26;60.07;100282.47;5041692;28;19921;-75
2023/03/26 06:05:05;;;;;;;;;;;;;;;11.31;59.86;100283.09;5022647;28;19917;-74
2023/03/26 06:08:14;;;;;;;;;;;;;;;11.54;59.70;100291.72;5046024;28;19917;-75
2023/03/26 06:11:11;;;;;;;;;;;;;;;11.53;59.64;100290.91;5032246;28;19917;-74
2023/03/26 06:14:03;;;;;;;;;;;;;;;11.68;60.19;100286.03;5036435;28;19921;-74
2023/03/26 06:16:55;;;;;;;;;;;;;;;11.84;59.35;100292.47;5037082;28;20392;-75
2023/03/26 06:19:47;;;;;;;;;;;;;;;11.93;59.56;100291.28;5034915;28;20296;-74
2023/03/26 06:22:46;;;;;;;;;;;;;;;11.94;60.17;100287.41;5044122;28;19916;-74
2023/03/26 06:25:44;;;;;;;;;;;;;;;12.12;59.48;100292.69;5033754;28;19917;-75
2023/03/26 06:28:56;;;;;;;;;;;;;;;12.15;59.31;100279.19;5012770;28;19917;-75
2023/03/26 06:32:15;;;;;;;;;;;;;;;12.24;58.67;100277.16;5010939;28;19918;-75
2023/03/26 06:35:09;;;;;;;;;;;;;;;12.41;57.37;100293.34;5015533;28;19917;-75
2023/03/26 06:38:01;;;;;;;;;;;;;;;12.56;57.20;100280.19;5027356;28;19917;-75
2023/03/26 06:40:52;;;;;;;;;;;;;;;12.76;56.85;100282.81;5045431;28;19921;-75
2023/03/26 06:43:48;;;;;;;;;;;;;;;12.88;56.08;100281.25;5039006;28;20400;-75
2023/03/26 06:46:58;;;;;;;;;;;;;;;13.05;55.72;100276.38;5032348;28;19921;-74
2023/03/26 06:50:06;;;;;;;;;;;;;;;13.18;55.58;100269.78;5027878;28;20388;-75
2023/03/26 06:53:04;;;;;;;;;;;;;;;13.38;55.40;100267.25;5038708;28;19917;-75
2023/03/26 06:56:03;;;;;;;;;;;;;;;13.49;55.11;100265.63;5055080;28;19925;-75
2023/03/26 06:59:22;;;;;;;;;;;;;;;13.59;55.11;100274.13;5035991;28;20388;-75
2023/03/26 07:02:30;;;;;;;;;;;;;;;13.69;54.24;100268.19;5044048;28;19917;-75
2023/03/26 07:05:39;;;;;;;;;;;;;;;13.81;54.01;100267.34;5032779;28;19917;-75
2023/03/26 07:08:54;;;;;;;;;;;;;;;13.91;53.73;100258.66;5038894;28;19917;-75
2023/03/26 07:12:02;;;;;;;;;;;;;;;14.10;53.22;100255.25;5035294;28;19917;-75
2023/03/26 07:15:10;;;;;;;;;;;;;;;14.19;52.76;100242.22;5033931;28;19917;-74
2023/03/26 07:18:28;;;;;;;;;;;;;;;14.32;52.23;100237.47;5025937;28;19917;-75
2023/03/26 07:21:20;;;;;;;;;;;;;;;14.41;52.17;100246.31;5045536;28;19921;-75
2023/03/26 07:24:14;;;;;;;;;;;;;;;14.42;52.05;100240.50;5046064;28;19921;-74
2023/03/26 07:27:31;;;;;;;;;;;;;;;14.37;52.11;100243.50;5024592;28;20380;-75
2023/03/26 07:30:23;;;;;;;;;;;;;;;14.50;51.86;100236.00;5046798;28;19921;-74
2023/03/26 07:33:33;;;;;;;;;;;;;;;14.61;51.07;100219.84;5038378;28;19921;-75
2023/03/26 07:36:45;;;;;;;;;;;;;;;14.69;50.47;100216.13;5038000;28;19917;-75
2023/03/26 07:39:58;;;;;;;;;;;;;;;14.79;50.41;100205.44;5031958;28;19921;-75
2023/03/26 07:43:09;;;;;;;;;;;;;;;14.94;50.21;100199.13;5035086;28;20296;-76
2023/03/26 07:46:17;;;;;;;;;;;;;;;14.97;49.45;100194.91;5047681;28;20308;-76
2023/03/26 07:49:27;;;;;;;;;;;;;;;15.00;49.58;100188.69;5042142;28;19917;-75
2023/03/26 07:52:25;;;;;;;;;;;;;;;15.11;49.76;100184.25;5042406;28;19912;-75
2023/03/26 07:55:27;;;;;;;;;;;;;;;15.19;49.46;100180.50;5051389;28;19917;-75
2023/03/26 07:59:00;;;;;;;;;;;;;;;15.24;49.15;100174.75;5064776;28;19916;-74
2023/03/26 08:02:19;;;;;;;;;;;;;;;15.35;49.54;100162.06;5060700;28;19917;-74
2023/03/26 08:05:25;;;;;;;;;;;;;;;15.43;49.15;100156.72;5036700;28;19917;-74
2023/03/26 08:08:27;;;;;;;;;;;;;;;15.56;49.08;100166.41;5041726;28;19925;-74
2023/03/26 08:11:58;;;;;;;;;;;;;;;15.61;49.20;100158.69;5063457;28;19917;-74
2023/03/26 08:14:56;;;;;;;;;;;;;;;15.66;48.90;100155.66;5047990;28;19917;-75
2023/03/26 08:17:55;;;;;;;;;;;;;;;15.69;49.38;100151.41;5037146;28;19917;-75
2023/03/26 08:20:51;;;;;;;;;;;;;;;15.77;49.17;100142.16;5034413;28;19921;-74
2023/03/26 08:23:48;;;;;;;;;;;;;;;15.86;49.06;100145.44;5038145;28;20383;-75
2023/03/26 08:26:47;;;;;;;;;;;;;;;15.89;48.63;100152.97;5037624;28;19917;-75
2023/03/26 08:29:57;;;;;;;;;;;;;;;16.00;48.86;100148.44;5048486;28;19917;-74
2023/03/26 08:32:51;;;;;;;;;;;;;;;16.09;48.70;100146.25;5042543;28;19925;-75
2023/03/26 08:35:43;;;;;;;;;;;;;;;16.11;48.95;100157.66;5046395;28;19921;-75
2023/03/26 08:38:35;;;;;;;;;;;;;;;16.15;48.94;100149.50;5037328;28;19936;-74
2023/03/26 08:41:27;;;;;;;;;;;;;;;16.14;49.00;100139.69;5034351;28;19921;-74
2023/03/26 08:44:26;;;;;;;;;;;;;;;16.20;48.88;100121.75;5051224;28;19917;-75
2023/03/26 08:47:34;;;;;;;;;;;;;;;16.22;48.88;100124.91;5035523;28;19917;-75
2023/03/26 08:50:27;;;;;;;;;;;;;;;16.38;48.54;100124.75;5066237;28;19917;-74
2023/03/26 08:53:39;;;;;;;;;;;;;;;16.50;48.43;100116.34;5055558;28;20384;-74
2023/03/26 08:56:37;;;;;;;;;;;;;;;16.55;48.20;100118.78;5034891;28;19921;-75
2023/03/26 08:59:48;;;;;;;;;;;;;;;16.57;48.27;100102.69;5036176;28;19921;-75
2023/03/26 09:02:43;;;;;;;;;;;;;;;16.69;48.40;100088.78;5132207;22;19924;-79
2023/03/26 09:05:42;;;;;;;;;;;;;;;16.70;48.86;100086.84;5062407;28;19921;-79
2023/03/26 09:08:31;;;;;;;;;;;;;;;16.77;49.15;100078.69;5074198;28;20364;-85
2023/03/26 09:11:24;;;;;;;;;;;;;;;17.77;47.86;100075.94;5070929;28;19921;-77
2023/03/26 09:14:29;;;;;;;;;;;;;;;17.69;46.75;100066.81;5054274;28;19916;-77
2023/03/26 09:17:37;;;;;;;;;;;;;;;17.68;46.88;100062.47;5056120;28;19924;-76
2023/03/26 09:20:47;;;;;;;;;;;;;;;17.88;46.52;100057.53;5052096;28;19921;-77
2023/03/26 09:23:54;;;;;;;;;;;;;;;18.13;45.74;100052.28;5068683;28;20379;-77
2023/03/26 09:26:50;;;;;;;;;;;;;;;18.19;45.72;100051.50;5040797;28;19920;-77
2023/03/26 09:29:59;;;;;;;;;;;;;;;18.27;45.61;100058.66;5056880;28;19916;-78
2023/03/26 09:33:04;;;;;;;;;;;;;;;18.42;45.09;100058.75;5052024;28;19916;-78
2023/03/26 09:35:53;;;;;;;;;;;;;;;18.46;45.14;100063.09;5041737;28;19916;-78
2023/03/26 09:38:46;;;;;;;;;;;;;;;18.11;45.95;100073.88;5061360;28;20372;-77
2023/03/26 09:41:43;;;;;;;;;;;;;;;18.15;45.43;100071.91;5036567;28;19929;-77
2023/03/26 09:44:59;;;;;;;;;;;;;;;18.13;45.95;100066.81;5055440;28;19917;-77
2023/03/26 09:48:07;;;;;;;;;;;;;;;18.17;45.78;100059.38;5055959;28;20384;-78
2023/03/26 09:51:03;;;;;;;;;;;;;;;17.90;46.54;100050.50;5059985;28;19917;-79
2023/03/26 09:53:58;;;;;;;;;;;;;;;17.84;46.77;100049.28;5049575;28;20304;-78
2023/03/26 09:56:57;;;;;;;;;;;;;;;17.77;47.65;100048.44;5074668;28;19921;-79
2023/03/26 09:59:56;;;;;;;;;;;;;;;17.65;47.34;100048.72;5038745;28;19922;-79
2023/03/26 10:03:01;;;;;;;;;;;;;;;17.63;47.52;100043.59;5038508;28;19917;-79
2023/03/26 10:05:59;;;;;;;;;;;;;;;17.62;47.50;100038.47;5038689;28;19917;-78
2023/03/26 10:09:11;;;;;;;;;;;;;;;17.59;46.98;100047.44;5023250;28;19921;-79
2023/03/26 10:12:13;;;;;;;;;;;;;;;17.60;47.31;100055.34;5044639;28;19924;-79
2023/03/26 10:15:15;;;;;;;;;;;;;;;17.69;47.09;100053.06;5063979;28;19917;-79
2023/03/26 10:18:14;;;;;;;;;;;;;;;17.67;46.99;100041.69;5059269;28;19916;-79
2023/03/26 10:21:11;;;;;;;;;;;;;;;17.48;46.84;100000.59;5051641;28;19921;-79
2023/03/26 10:24:21;;;;;;;;;;;;;;;17.46;46.89;100019.44;5061406;28;19917;-79
2023/03/26 10:27:22;;;;;;;;;;;;;;;17.54;47.20;100015.59;5041675;28;19917;-79
2023/03/26 10:30:18;;;;;;;;;;;;;;;17.33;48.26;100012.63;5061491;28;20367;-79
2023/03/26 10:33:18;;;;;;;;;;;;;;;17.47;47.78;100007.28;5051674;28;19917;-79
2023/03/26 10:36:17;;;;;;;;;;;;;;;17.59;47.78;100006.19;5047794;28;19917;-79
2023/03/26 10:39:14;;;;;;;;;;;;;;;17.42;47.83;99991.16;5054418;28;19921;-79
2023/03/26 10:42:20;;;;;;;;;;;;;;;17.33;48.70;99987.91;5056805;28;19916;-79
2023/03/26 10:45:35;;;;;;;;;;;;;;;17.30;48.26;99977.66;5045498;28;19917;-79
2023/03/26 10:48:40;;;;;;;;;;;;;;;17.19;48.25;99971.28;5029990;28;20396;-79
2023/03/26 10:51:52;;;;;;;;;;;;;;;17.23;48.58;99963.84;5041934;28;19917;-79
2023/03/26 10:55:08;;;;;;;;;;;;;;;17.43;48.24;99963.25;5076841;28;19917;-79
2023/03/26 10:58:00;;;;;;;;;;;;;;;17.53;48.14;99975.50;5046113;28;19917;-79
2023/03/26 11:01:00;;;;;;;;;;;;;;;17.76;47.51;99983.59;5041596;28;19921;-79
2023/03/26 11:03:55;;;;;;;;;;;;;;;17.90;46.85;99975.44;5060307;28;19917;-79
2023/03/26 11:07:11;;;;;;;;;;;;;;;18.10;46.45;99970.47;5058533;28;20295;-79
2023/03/26 11:10:14;;;;;;;;;;;;;;;18.21;46.12;99968.56;5041714;28;20299;-79
2023/03/26 11:13:10;;;;;;;;;;;;;;;18.28;46.40;99971.38;5062365;28;19916;-79
2023/03/26 11:16:02;;;;;;;;;;;;;;;18.25;46.09;99978.41;5066461;28;19917;-79
2023/03/26 11:19:12;;;;;;;;;;;;;;;18.31;46.11;99965.88;5083366;28;19917;-79
2023/03/26 11:22:22;;;;;;;;;;;;;;;18.47;45.77;99957.31;5070914;28;19921;-79
2023/03/26 11:25:40;;;;;;;;;;;;;;;18.56;45.89;99949.50;5057353;28;20284;-79
2023/03/26 11:28:33;;;;;;;;;;;;;;;18.49;44.82;99954.16;5037754;28;19918;-79
2023/03/26 11:31:39;;;;;;;;;;;;;;;18.54;45.09;99940.06;5042654;28;19917;-79
2023/03/26 11:34:31;;;;;;;;;;;;;;;18.68;44.56;99929.09;5050561;28;19916;-79
2023/03/26 11:37:27;;;;;;;;;;;;;;;18.55;44.35;99925.88;5076805;28;19916;-79
2023/03/26 11:40:23;;;;;;;;;;;;;;;18.78;43.59;99920.06;5049319;28;19920;-79
2023/03/26 11:43:16;;;;;;;;;;;;;;;18.99;43.47;99927.59;5065508;28;19917;-79
2023/03/26 11:46:09;;;;;;;;;;;;;;;19.12;44.40;99931.53;5045881;28;19917;-79
2023/03/26 11:49:05;;;;;;;;;;;;;;;19.30;43.66;99932.34;5051309;28;20296;-79
2023/03/26 11:51:57;;;;;;;;;;;;;;;19.30;42.75;99926.81;5063030;28;19917;-79
2023/03/26 11:54:49;;;;;;;;;;;;;;;19.32;42.88;99923.69;5061569;28;19917;-79
2023/03/26 11:57:41;;;;;;;;;;;;;;;19.41;42.64;99899.25;5062882;28;19917;-79
2023/03/26 12:00:33;;;;;;;;;;;;;;;19.37;42.78;99902.03;5073261;28;19921;-79
2023/03/26 12:03:25;;;;;;;;;;;;;;;19.23;42.41;99883.53;5079340;28;19916;-79
2023/03/26 12:06:28;;;;;;;;;;;;;;;19.01;42.95;99883.88;5057978;28;19917;-79
2023/03/26 12:09:20;;;;;;;;;;;;;;;19.02;43.00;99868.94;5044833;28;20287;-79
2023/03/26 12:12:12;;;;;;;;;;;;;;;19.05;43.52;99862.63;5046412;28;19916;-79
2023/03/26 12:15:05;;;;;;;;;;;;;;;18.93;42.84;99854.75;5048129;28;19917;-80
2023/03/26 12:17:55;;;;;;;;;;;;;;;19.01;43.23;99851.59;5057778;28;19924;-79
2023/03/26 12:20:47;;;;;;;;;;;;;;;19.16;42.72;99858.69;5052491;28;19920;-79
2023/03/26 12:23:39;;;;;;;;;;;;;;;19.30;42.37;99855.13;5070968;28;19920;-79
2023/03/26 12:26:49;;;;;;;;;;;;;;;19.21;41.79;99852.00;5069644;28;19916;-78
2023/03/26 12:29:41;;;;;;;;;;;;;;;19.07;41.81;99846.50;5058261;28;19916;-78
2023/03/26 12:32:39;;;;;;;;;;;;;;;19.05;41.74;99835.84;5056322;28;19916;-78
2023/03/26 12:35:32;;;;;;;;;;;;;;;19.05;41.95;99835.06;5047150;28;20387;-78
2023/03/26 12:38:34;;;;;;;;;;;;;;;18.93;42.48;99827.22;5059395;28;19917;-78
2023/03/26 12:41:34;;;;;;;;;;;;;;;18.83;42.95;99831.53;5055624;28;20404;-78
2023/03/26 12:44:29;;;;;;;;;;;;;;;18.82;42.70;99818.94;5068054;28;19917;-78
2023/03/26 12:47:23;;;;;;;;;;;;;;;18.79;42.15;99814.97;5057260;28;19921;-78
2023/03/26 12:50:16;;;;;;;;;;;;;;;18.67;42.23;99798.84;5030441;28;19920;-78
2023/03/26 12:53:34;;;;;;;;;;;;;;;18.61;42.27;99794.91;5022539;28;20357;-78
2023/03/26 12:56:35;;;;;;;;;;;;;;;18.57;42.46;99790.59;5043567;28;19924;-78
2023/03/26 12:59:51;;;;;;;;;;;;;;;18.58;42.14;99779.19;5056229;28;19917;-78
2023/03/26 13:02:46;;;;;;;;;;;;;;;18.50;42.51;99772.03;5031890;28;19921;-78
2023/03/26 13:05:54;;;;;;;;;;;;;;;18.48;42.70;99766.16;5050624;28;19916;-78
2023/03/26 13:09:02;;;;;;;;;;;;;;;18.42;43.11;99762.22;5058140;28;19916;-78
2023/03/26 13:12:01;;;;;;;;;;;;;;;18.37;43.32;99757.09;5055006;28;19916;-78
2023/03/26 13:14:57;;;;;;;;;;;;;;;18.33;43.24;99750.78;5059008;28;19921;-78
2023/03/26 13:18:06;;;;;;;;;;;;;;;18.31;43.42;99748.44;5057478;28;19955;-78
2023/03/26 13:21:01;;;;;;;;;;;;;;;18.24;44.02;99740.16;5060836;28;19921;-78
2023/03/26 13:24:00;;;;;;;;;;;;;;;18.23;43.86;99735.84;5081686;28;19916;-78
2023/03/26 13:26:52;;;;;;;;;;;;;;;18.21;43.79;99729.13;5044831;28;20311;-78
2023/03/26 13:29:44;;;;;;;;;;;;;;;18.15;44.08;99719.69;5052158;28;19917;-78
2023/03/26 13:32:37;;;;;;;;;;;;;;;18.09;43.77;99704.72;5058730;28;19917;-78
2023/03/26 13:35:34;;;;;;;;;;;;;;;18.10;44.08;99701.59;5047611;28;19921;-78
2023/03/26 13:38:35;;;;;;;;;;;;;;;18.08;44.38;99703.19;5057418;28;19917;-76
2023/03/26 13:41:46;;;;;;;;;;;;;;;18.10;44.54;99695.31;5053438;28;20391;-77
2023/03/26 13:44:46;;;;;;;;;;;;;;;18.01;44.35;99700.41;5049922;28;20471;-76
2023/03/26 13:47:40;;;;;;;;;;;;;;;18.08;44.40;99686.69;5059245;28;20311;-77
2023/03/26 13:50:34;;;;;;;;;;;;;;;18.05;44.70;99676.44;5055225;28;19917;-80
2023/03/26 13:53:33;;;;;;;;;;;;;;;18.03;44.99;99659.53;5055573;28;19916;-80
2023/03/26 13:56:27;;;;;;;;;;;;;;;17.85;45.99;99652.03;5058139;28;19916;-80
2023/03/26 13:59:32;;;;;;;;;;;;;;;17.83;46.11;99637.88;5060085;28;20315;-80
2023/03/26 14:02:23;;;;;;;;;;;;;;;17.89;45.39;99632.78;5044620;28;19924;-80
2023/03/26 14:05:25;;;;;;;;;;;;;;;17.84;45.92;99624.91;5045972;28;19917;-80
2023/03/26 14:08:26;;;;;;;;;;;;;;;17.77;45.14;99611.97;5055201;28;19921;-79
2023/03/26 14:11:23;;;;;;;;;;;;;;;17.91;45.19;99611.97;5057988;28;19917;-79
2023/03/26 14:14:19;;;;;;;;;;;;;;;17.87;46.07;99602.16;5055980;28;20124;-78
2023/03/26 14:17:18;;;;;;;;;;;;;;;17.83;45.92;99593.09;5057727;28;20379;-78
2023/03/26 14:20:22;;;;;;;;;;;;;;;17.87;46.24;99591.94;5040422;28;19925;-78
2023/03/26 14:23:30;;;;;;;;;;;;;;;17.75;47.36;99586.00;5058719;28;19920;-78
2023/03/26 14:26:29;;;;;;;;;;;;;;;17.73;47.75;99575.41;5054587;28;20304;-78
2023/03/26 14:29:38;;;;;;;;;;;;;;;17.69;47.62;99566.34;5048897;28;20287;-78
2023/03/26 14:32:31;;;;;;;;;;;;;;;17.71;48.27;99554.97;5031911;28;20311;-78
2023/03/26 14:35:30;;;;;;;;;;;;;;;17.61;50.03;99555.75;5063380;28;20308;-78
2023/03/26 14:38:44;;;;;;;;;;;;;;;17.48;59.59;99555.28;5060319;28;19916;-78
2023/03/26 14:41:38;;;;;;;;;;;;;;;16.60;66.34;99551.06;5037050;28;19921;-77
2023/03/26 14:44:46;;;;;;;;;;;;;;;16.01;70.80;99548.66;5042355;28;19920;-78
2023/03/26 14:47:39;;;;;;;;;;;;;;;15.31;77.65;99553.06;5053489;28;19917;-78
2023/03/26 14:50:45;;;;;;;;;;;;;;;14.92;88.86;99535.41;5046386;28;20396;-78
2023/03/26 14:53:38;;;;;;;;;;;;;;;14.90;94.65;99543.19;5076740;28;19917;-77
2023/03/26 14:56:43;;;;;;;;;;;;;;;14.96;97.94;99531.56;5043881;28;19925;-78
2023/03/26 14:59:49;;;;;;;;;;;;;;;14.90;98.40;99540.47;5050776;28;19917;-78
2023/03/26 15:02:36;;;;;;;;;;;;;;;14.90;99.18;99529.50;5054379;28;19925;-78
2023/03/26 15:05:44;;;;;;;;;;;;;;;15.06;100.00;99529.31;5042073;28;19916;-78
2023/03/26 15:08:53;;;;;;;;;;;;;;;14.91;99.77;99534.63;5038459;28;19917;-78
2023/03/26 15:11:53;;;;;;;;;;;;;;;14.88;98.79;99524.41;5060860;28;19916;-78
2023/03/26 15:15:11;;;;;;;;;;;;;;;14.97;99.07;99510.44;5048243;28;19917;-78
2023/03/26 15:18:20;;;;;;;;;;;;;;;14.91;98.13;99500.97;5078032;28;19916;-79
2023/03/26 15:21:35;;;;;;;;;;;;;;;14.84;96.43;99498.94;5049363;28;19929;-78
2023/03/26 15:24:31;;;;;;;;;;;;;;;14.98;97.93;99501.06;5035942;28;19917;-79